METAR Data
IDs: Format: Raw Decoded Include TAF

Data at: 1248 UTC 26 Feb 2021

KOZW 261235Z AUTO 11005KT 7SM CLR M08/M08 A3029 RMK AO2 T10761081